Villalbilla, Spain
Current Conditions -  °F | °C
As of 3:00 AM on Saturday 20 Dec 2014 (Local Time) from LETO Reporting Station
Light Fog Light Fog  
Wind Chill: 34°   Ceiling: Unl
Heat Index: 34°   Visibility: 4mi
Dew Point: 32°   Wind: 2mph
Humidity: 93%   Direction: 30°NNE
Pressure: 30.48"   Gusts: NA
Location:  40.43°N, 3.3°W
Report Text: LETO 200200Z 03002KT 6000 2500SE BCFG NSC 01/00 Q1032 NOSIG
Loading
Personal Weather Stations






























Interactive Weather Map New forecast layout! Learn more

10-Day Weather Forecast

Advertisements
Track Severe Weather on mobile